sensor_id;sensor_type;location;lat;lon;timestamp;pressure;altitude;pressure_sealevel;temperature;humidity
44659;BME280;30378;50.186;8.644;2022-10-16T00:00:46;100210.38;;;14.35;100.00
44659;BME280;30378;50.186;8.644;2022-10-16T00:03:13;100222.22;;;14.35;100.00
44659;BME280;30378;50.186;8.644;2022-10-16T00:05:40;100229.22;;;14.33;100.00
44659;BME280;30378;50.186;8.644;2022-10-16T00:08:10;100218.16;;;14.33;100.00
44659;BME280;30378;50.186;8.644;2022-10-16T00:10:37;100199.13;;;14.31;100.00
44659;BME280;30378;50.186;8.644;2022-10-16T00:13:05;100207.59;;;14.26;100.00
44659;BME280;30378;50.186;8.644;2022-10-16T00:15:34;100198.66;;;14.20;100.00
44659;BME280;30378;50.186;8.644;2022-10-16T00:18:04;100191.34;;;14.24;100.00
44659;BME280;30378;50.186;8.644;2022-10-16T00:20:34;100202.09;;;14.26;100.00
44659;BME280;30378;50.186;8.644;2022-10-16T00:23:01;100205.16;;;14.24;100.00
44659;BME280;30378;50.186;8.644;2022-10-16T00:25:28;100203.19;;;14.25;100.00
44659;BME280;30378;50.186;8.644;2022-10-16T00:27:55;100205.47;;;14.23;100.00
44659;BME280;30378;50.186;8.644;2022-10-16T00:30:22;100210.84;;;14.19;100.00
44659;BME280;30378;50.186;8.644;2022-10-16T00:32:49;100208.91;;;14.20;100.00
44659;BME280;30378;50.186;8.644;2022-10-16T00:35:16;100207.75;;;14.21;100.00
44659;BME280;30378;50.186;8.644;2022-10-16T00:37:43;100206.94;;;14.20;100.00
44659;BME280;30378;50.186;8.644;2022-10-16T00:40:10;100202.53;;;14.19;100.00
44659;BME280;30378;50.186;8.644;2022-10-16T00:42:37;100205.00;;;14.21;100.00
44659;BME280;30378;50.186;8.644;2022-10-16T00:45:05;100210.38;;;14.26;100.00
44659;BME280;30378;50.186;8.644;2022-10-16T00:47:40;100210.19;;;14.31;100.00
44659;BME280;30378;50.186;8.644;2022-10-16T00:50:18;100201.25;;;14.43;100.00
44659;BME280;30378;50.186;8.644;2022-10-16T00:52:48;100211.00;;;14.49;100.00
44659;BME280;30378;50.186;8.644;2022-10-16T00:55:17;100206.94;;;14.55;100.00
44659;BME280;30378;50.186;8.644;2022-10-16T00:57:45;100213.16;;;14.61;100.00
44659;BME280;30378;50.186;8.644;2022-10-16T01:00:16;100212.84;;;14.62;100.00
44659;BME280;30378;50.186;8.644;2022-10-16T01:02:44;100211.84;;;14.67;100.00
44659;BME280;30378;50.186;8.644;2022-10-16T01:05:11;100229.28;;;14.67;100.00
44659;BME280;30378;50.186;8.644;2022-10-16T01:07:54;100223.56;;;14.64;100.00
44659;BME280;30378;50.186;8.644;2022-10-16T01:13:25;100230.22;;;14.63;100.00
44659;BME280;30378;50.186;8.644;2022-10-16T01:18:43;100249.44;;;14.68;100.00
44659;BME280;30378;50.186;8.644;2022-10-16T01:21:33;100252.84;;;14.65;100.00
44659;BME280;30378;50.186;8.644;2022-10-16T01:27:20;100239.50;;;14.67;100.00
44659;BME280;30378;50.186;8.644;2022-10-16T01:40:27;100233.81;;;14.72;100.00
44659;BME280;30378;50.186;8.644;2022-10-16T01:43:06;100229.56;;;14.75;100.00
44659;BME280;30378;50.186;8.644;2022-10-16T01:45:35;100241.13;;;14.77;100.00
44659;BME280;30378;50.186;8.644;2022-10-16T01:48:05;100258.06;;;14.75;100.00
44659;BME280;30378;50.186;8.644;2022-10-16T01:50:37;100262.78;;;14.75;100.00
44659;BME280;30378;50.186;8.644;2022-10-16T01:53:09;100273.19;;;14.78;100.00
44659;BME280;30378;50.186;8.644;2022-10-16T01:55:41;100272.38;;;14.77;100.00
44659;BME280;30378;50.186;8.644;2022-10-16T01:58:13;100263.75;;;14.79;100.00
44659;BME280;30378;50.186;8.644;2022-10-16T02:00:43;100262.94;;;14.78;100.00
44659;BME280;30378;50.186;8.644;2022-10-16T02:03:12;100253.66;;;14.83;100.00
44659;BME280;30378;50.186;8.644;2022-10-16T02:05:53;100254.28;;;14.88;100.00
44659;BME280;30378;50.186;8.644;2022-10-16T02:08:24;100259.50;;;14.90;100.00
44659;BME280;30378;50.186;8.644;2022-10-16T02:10:58;100279.38;;;14.92;100.00
44659;BME280;30378;50.186;8.644;2022-10-16T02:13:37;100283.28;;;14.91;100.00
44659;BME280;30378;50.186;8.644;2022-10-16T02:16:06;100281.00;;;14.93;100.00
44659;BME280;30378;50.186;8.644;2022-10-16T02:18:34;100288.63;;;14.96;100.00
44659;BME280;30378;50.186;8.644;2022-10-16T02:27:12;100301.34;;;14.97;100.00
44659;BME280;30378;50.186;8.644;2022-10-16T02:29:52;100318.25;;;14.96;100.00
44659;BME280;30378;50.186;8.644;2022-10-16T02:32:23;100316.31;;;14.96;100.00
44659;BME280;30378;50.186;8.644;2022-10-16T02:34:51;100313.38;;;14.93;100.00
44659;BME280;30378;50.186;8.644;2022-10-16T02:37:19;100311.94;;;14.95;100.00
44659;BME280;30378;50.186;8.644;2022-10-16T02:39:46;100323.31;;;14.94;100.00
44659;BME280;30378;50.186;8.644;2022-10-16T02:42:13;100314.69;;;14.95;100.00
44659;BME280;30378;50.186;8.644;2022-10-16T02:44:40;100319.06;;;14.96;100.00
44659;BME280;30378;50.186;8.644;2022-10-16T02:47:07;100328.53;;;14.95;100.00
44659;BME280;30378;50.186;8.644;2022-10-16T02:49:34;100329.50;;;14.99;100.00
44659;BME280;30378;50.186;8.644;2022-10-16T02:52:01;100329.50;;;14.99;100.00
44659;BME280;30378;50.186;8.644;2022-10-16T02:54:28;100332.59;;;14.98;100.00
44659;BME280;30378;50.186;8.644;2022-10-16T02:56:55;100336.47;;;14.97;100.00
44659;BME280;30378;50.186;8.644;2022-10-16T02:59:22;100330.94;;;14.97;100.00
44659;BME280;30378;50.186;8.644;2022-10-16T03:01:49;100329.84;;;14.89;100.00
44659;BME280;30378;50.186;8.644;2022-10-16T03:04:16;100326.22;;;14.88;100.00
44659;BME280;30378;50.186;8.644;2022-10-16T03:06:43;100333.56;;;14.84;100.00
44659;BME280;30378;50.186;8.644;2022-10-16T03:09:10;100347.69;;;14.83;100.00
44659;BME280;30378;50.186;8.644;2022-10-16T03:11:37;100356.84;;;14.83;100.00
44659;BME280;30378;50.186;8.644;2022-10-16T03:14:04;100346.41;;;14.80;100.00
44659;BME280;30378;50.186;8.644;2022-10-16T03:16:30;100342.03;;;14.79;100.00
44659;BME280;30378;50.186;8.644;2022-10-16T03:18:58;100334.38;;;14.76;100.00
44659;BME280;30378;50.186;8.644;2022-10-16T03:21:28;100335.34;;;14.72;100.00
44659;BME280;30378;50.186;8.644;2022-10-16T03:23:55;100347.22;;;14.72;100.00
44659;BME280;30378;50.186;8.644;2022-10-16T03:26:22;100347.84;;;14.69;100.00
44659;BME280;30378;50.186;8.644;2022-10-16T03:28:48;100350.97;;;14.67;100.00
44659;BME280;30378;50.186;8.644;2022-10-16T03:31:15;100359.94;;;14.73;100.00
44659;BME280;30378;50.186;8.644;2022-10-16T03:33:42;100360.69;;;14.65;100.00
44659;BME280;30378;50.186;8.644;2022-10-16T03:36:09;100356.81;;;14.66;100.00
44659;BME280;30378;50.186;8.644;2022-10-16T03:38:36;100368.03;;;14.61;100.00
44659;BME280;30378;50.186;8.644;2022-10-16T03:41:03;100367.03;;;14.57;100.00
44659;BME280;30378;50.186;8.644;2022-10-16T03:43:30;100366.81;;;14.53;100.00
44659;BME280;30378;50.186;8.644;2022-10-16T03:45:57;100382.31;;;14.54;100.00
44659;BME280;30378;50.186;8.644;2022-10-16T03:48:24;100387.16;;;14.48;100.00
44659;BME280;30378;50.186;8.644;2022-10-16T03:50:51;100380.00;;;14.47;100.00
44659;BME280;30378;50.186;8.644;2022-10-16T03:53:18;100375.94;;;14.45;100.00
44659;BME280;30378;50.186;8.644;2022-10-16T03:55:45;100379.00;;;14.43;100.00
44659;BME280;30378;50.186;8.644;2022-10-16T03:58:12;100384.03;;;14.41;100.00
44659;BME280;30378;50.186;8.644;2022-10-16T04:00:43;100380.47;;;14.41;100.00
44659;BME280;30378;50.186;8.644;2022-10-16T04:03:11;100389.91;;;14.40;100.00
44659;BME280;30378;50.186;8.644;2022-10-16T04:05:38;100387.47;;;14.38;100.00
44659;BME280;30378;50.186;8.644;2022-10-16T04:08:06;100389.06;;;14.39;100.00
44659;BME280;30378;50.186;8.644;2022-10-16T04:10:32;100390.72;;;14.40;100.00
44659;BME280;30378;50.186;8.644;2022-10-16T04:12:59;100392.69;;;14.40;100.00
44659;BME280;30378;50.186;8.644;2022-10-16T04:15:26;100389.25;;;14.43;100.00
44659;BME280;30378;50.186;8.644;2022-10-16T04:17:53;100390.53;;;14.37;100.00
44659;BME280;30378;50.186;8.644;2022-10-16T04:20:20;100390.84;;;14.35;100.00
44659;BME280;30378;50.186;8.644;2022-10-16T04:22:47;100386.47;;;14.34;100.00
44659;BME280;30378;50.186;8.644;2022-10-16T04:25:14;100397.84;;;14.33;100.00
44659;BME280;30378;50.186;8.644;2022-10-16T04:27:41;100406.31;;;14.36;100.00
44659;BME280;30378;50.186;8.644;2022-10-16T04:30:09;100411.66;;;14.33;100.00
44659;BME280;30378;50.186;8.644;2022-10-16T04:32:36;100409.72;;;14.33;100.00
44659;BME280;30378;50.186;8.644;2022-10-16T04:35:03;100413.94;;;14.31;100.00
44659;BME280;30378;50.186;8.644;2022-10-16T04:37:30;100416.38;;;14.32;100.00
44659;BME280;30378;50.186;8.644;2022-10-16T04:39:57;100408.91;;;14.33;100.00
44659;BME280;30378;50.186;8.644;2022-10-16T04:42:24;100406.13;;;14.33;100.00
44659;BME280;30378;50.186;8.644;2022-10-16T04:44:51;100409.72;;;14.33;100.00
44659;BME280;30378;50.186;8.644;2022-10-16T04:47:19;100409.22;;;14.31;100.00
44659;BME280;30378;50.186;8.644;2022-10-16T04:49:46;100413.13;;;14.30;100.00
44659;BME280;30378;50.186;8.644;2022-10-16T04:52:13;100409.72;;;14.33;100.00
44659;BME280;30378;50.186;8.644;2022-10-16T04:54:40;100407.78;;;14.34;100.00
44659;BME280;30378;50.186;8.644;2022-10-16T04:57:07;100399.81;;;14.32;100.00
44659;BME280;30378;50.186;8.644;2022-10-16T04:59:34;100400.28;;;14.34;100.00
44659;BME280;30378;50.186;8.644;2022-10-16T05:02:01;100408.44;;;14.39;100.00
44659;BME280;30378;50.186;8.644;2022-10-16T05:04:27;100411.53;;;14.38;100.00
44659;BME280;30378;50.186;8.644;2022-10-16T05:06:54;100408.78;;;14.38;100.00
44659;BME280;30378;50.186;8.644;2022-10-16T05:09:21;100411.84;;;14.36;100.00
44659;BME280;30378;50.186;8.644;2022-10-16T05:11:48;100414.63;;;14.36;100.00
44659;BME280;30378;50.186;8.644;2022-10-16T05:14:15;100422.41;;;14.34;100.00
44659;BME280;30378;50.186;8.644;2022-10-16T05:16:42;100415.72;;;14.35;100.00
44659;BME280;30378;50.186;8.644;2022-10-16T05:19:09;100419.47;;;14.31;100.00
44659;BME280;30378;50.186;8.644;2022-10-16T05:21:53;100417.00;;;14.29;100.00
44659;BME280;30378;50.186;8.644;2022-10-16T05:24:20;100407.09;;;14.28;100.00
44659;BME280;30378;50.186;8.644;2022-10-16T05:26:47;100415.91;;;14.30;100.00
44659;BME280;30378;50.186;8.644;2022-10-16T05:29:14;100414.25;;;14.29;100.00
44659;BME280;30378;50.186;8.644;2022-10-16T05:31:41;100411.47;;;14.29;100.00
44659;BME280;30378;50.186;8.644;2022-10-16T05:34:08;100401.09;;;14.26;100.00
44659;BME280;30378;50.186;8.644;2022-10-16T05:36:35;100411.97;;;14.22;100.00
44659;BME280;30378;50.186;8.644;2022-10-16T05:39:02;100405.78;;;14.25;100.00
44659;BME280;30378;50.186;8.644;2022-10-16T05:41:29;100408.53;;;14.25;100.00
44659;BME280;30378;50.186;8.644;2022-10-16T05:43:56;100406.63;;;14.26;100.00
44659;BME280;30378;50.186;8.644;2022-10-16T05:46:23;100407.72;;;14.25;100.00
44659;BME280;30378;50.186;8.644;2022-10-16T05:48:52;100415.22;;;14.24;100.00
44659;BME280;30378;50.186;8.644;2022-10-16T05:51:19;100408.03;;;14.23;100.00
44659;BME280;30378;50.186;8.644;2022-10-16T05:53:46;100427.09;;;14.25;100.00
44659;BME280;30378;50.186;8.644;2022-10-16T05:56:14;100424.00;;;14.26;100.00
44659;BME280;30378;50.186;8.644;2022-10-16T05:58:41;100424.00;;;14.26;100.00
44659;BME280;30378;50.186;8.644;2022-10-16T06:01:16;100426.75;;;14.26;100.00
44659;BME280;30378;50.186;8.644;2022-10-16T06:03:43;100437.16;;;14.29;100.00
44659;BME280;30378;50.186;8.644;2022-10-16T06:06:16;100444.34;;;14.31;100.00
44659;BME280;30378;50.186;8.644;2022-10-16T06:08:44;100446.78;;;14.32;100.00
44659;BME280;30378;50.186;8.644;2022-10-16T06:11:15;100461.59;;;14.36;100.00
44659;BME280;30378;50.186;8.644;2022-10-16T06:13:43;100451.53;;;14.40;100.00
44659;BME280;30378;50.186;8.644;2022-10-16T06:16:12;100450.88;;;14.43;100.00
44659;BME280;30378;50.186;8.644;2022-10-16T06:18:40;100443.94;;;14.46;100.00
44659;BME280;30378;50.186;8.644;2022-10-16T06:21:16;100444.72;;;14.46;100.00
44659;BME280;30378;50.186;8.644;2022-10-16T06:23:44;100456.59;;;14.47;100.00
44659;BME280;30378;50.186;8.644;2022-10-16T06:26:15;100451.25;;;14.51;100.00
44659;BME280;30378;50.186;8.644;2022-10-16T06:28:42;100457.28;;;14.53;100.00
44659;BME280;30378;50.186;8.644;2022-10-16T06:31:10;100460.25;;;14.56;100.00
44659;BME280;30378;50.186;8.644;2022-10-16T06:33:38;100458.28;;;14.57;100.00
44659;BME280;30378;50.186;8.644;2022-10-16T06:36:10;100461.88;;;14.57;100.00
44659;BME280;30378;50.186;8.644;2022-10-16T06:38:38;100469.63;;;14.55;100.00
44659;BME280;30378;50.186;8.644;2022-10-16T06:41:07;100469.34;;;14.57;100.00
44659;BME280;30378;50.186;8.644;2022-10-16T06:43:34;100463.19;;;14.60;100.00
44659;BME280;30378;50.186;8.644;2022-10-16T06:46:05;100462.88;;;14.61;100.00
44659;BME280;30378;50.186;8.644;2022-10-16T06:48:34;100460.63;;;14.63;100.00
44659;BME280;30378;50.186;8.644;2022-10-16T06:51:06;100462.41;;;14.68;100.00
44659;BME280;30378;50.186;8.644;2022-10-16T06:53:35;100468.44;;;14.70;100.00
44659;BME280;30378;50.186;8.644;2022-10-16T06:56:13;100473.97;;;14.70;100.00
44659;BME280;30378;50.186;8.644;2022-10-16T06:58:41;100471.06;;;14.75;100.00
44659;BME280;30378;50.186;8.644;2022-10-16T07:01:09;100469.09;;;14.76;100.00
44659;BME280;30378;50.186;8.644;2022-10-16T07:03:39;100466.34;;;14.76;100.00
44659;BME280;30378;50.186;8.644;2022-10-16T07:06:08;100464.25;;;14.81;100.00
44659;BME280;30378;50.186;8.644;2022-10-16T07:08:38;100467.16;;;14.76;100.00
44659;BME280;30378;50.186;8.644;2022-10-16T07:11:08;100474.81;;;14.79;100.00
44659;BME280;30378;50.186;8.644;2022-10-16T07:13:37;100483.78;;;14.85;100.00
44659;BME280;30378;50.186;8.644;2022-10-16T07:16:15;100491.13;;;14.90;100.00
44659;BME280;30378;50.186;8.644;2022-10-16T07:18:43;100492.09;;;14.94;100.00
44659;BME280;30378;50.186;8.644;2022-10-16T07:21:17;100496.16;;;14.96;100.00
44659;BME280;30378;50.186;8.644;2022-10-16T07:23:50;100498.94;;;14.96;100.00
44659;BME280;30378;50.186;8.644;2022-10-16T07:26:18;100504.00;;;15.03;100.00
44659;BME280;30378;50.186;8.644;2022-10-16T07:28:44;100517.69;;;15.08;100.00
44659;BME280;30378;50.186;8.644;2022-10-16T07:31:12;100518.84;;;15.07;100.00
44659;BME280;30378;50.186;8.644;2022-10-16T07:33:43;100518.19;;;15.10;100.00
44659;BME280;30378;50.186;8.644;2022-10-16T07:36:12;100522.91;;;15.10;100.00
44659;BME280;30378;50.186;8.644;2022-10-16T07:38:41;100519.47;;;15.04;100.00
44659;BME280;30378;50.186;8.644;2022-10-16T07:41:11;100521.91;;;15.05;100.00
44659;BME280;30378;50.186;8.644;2022-10-16T07:43:38;100526.16;;;15.12;100.00
44659;BME280;30378;50.186;8.644;2022-10-16T07:46:06;100531.88;;;15.15;100.00
44659;BME280;30378;50.186;8.644;2022-10-16T07:48:34;100537.91;;;15.17;100.00
44659;BME280;30378;50.186;8.644;2022-10-16T07:51:04;100544.41;;;15.13;100.00
44659;BME280;30378;50.186;8.644;2022-10-16T07:53:32;100531.22;;;15.10;100.00
44659;BME280;30378;50.186;8.644;2022-10-16T07:56:00;100542.94;;;15.15;100.00
44659;BME280;30378;50.186;8.644;2022-10-16T07:58:28;100543.94;;;15.19;100.00
44659;BME280;30378;50.186;8.644;2022-10-16T08:00:56;100547.69;;;15.23;100.00
44659;BME280;30378;50.186;8.644;2022-10-16T08:03:26;100554.53;;;15.26;100.00
44659;BME280;30378;50.186;8.644;2022-10-16T08:05:53;100558.94;;;15.36;100.00
44659;BME280;30378;50.186;8.644;2022-10-16T08:08:20;100578.63;;;15.34;100.00
44659;BME280;30378;50.186;8.644;2022-10-16T08:10:47;100570.00;;;15.27;100.00
44659;BME280;30378;50.186;8.644;2022-10-16T08:13:14;100573.28;;;15.29;100.00
44659;BME280;30378;50.186;8.644;2022-10-16T08:15:45;100564.00;;;15.34;100.00
44659;BME280;30378;50.186;8.644;2022-10-16T08:18:14;100551.63;;;15.40;100.00
44659;BME280;30378;50.186;8.644;2022-10-16T08:20:42;100553.75;;;15.43;100.00
44659;BME280;30378;50.186;8.644;2022-10-16T08:23:11;100558.63;;;15.46;100.00
44659;BME280;30378;50.186;8.644;2022-10-16T08:25:39;100561.41;;;15.46;100.00
44659;BME280;30378;50.186;8.644;2022-10-16T08:28:07;100565.66;;;15.52;100.00
44659;BME280;30378;50.186;8.644;2022-10-16T08:30:34;100567.13;;;15.58;100.00
44659;BME280;30378;50.186;8.644;2022-10-16T08:33:02;100569.72;;;15.63;100.00
44659;BME280;30378;50.186;8.644;2022-10-16T08:35:29;100567.78;;;15.55;100.00
44659;BME280;30378;50.186;8.644;2022-10-16T08:37:55;100511.75;;;15.58;100.00
44659;BME280;30378;50.186;8.644;2022-10-16T08:40:28;100523.78;;;15.62;100.00
44659;BME280;30378;50.186;8.644;2022-10-16T08:48:52;100469.84;;;15.60;100.00
44659;BME280;30378;50.186;8.644;2022-10-16T08:51:27;100477.03;;;15.61;100.00
44659;BME280;30378;50.186;8.644;2022-10-16T08:53:58;100476.72;;;15.62;100.00
44659;BME280;30378;50.186;8.644;2022-10-16T08:56:26;100471.81;;;15.68;100.00
44659;BME280;30378;50.186;8.644;2022-10-16T08:58:53;100471.47;;;15.70;100.00
44659;BME280;30378;50.186;8.644;2022-10-16T09:01:37;100463.53;;;15.77;100.00
44659;BME280;30378;50.186;8.644;2022-10-16T09:07:30;100465.41;;;16.11;100.00
44659;BME280;30378;50.186;8.644;2022-10-16T09:10:01;100470.97;;;16.02;100.00
44659;BME280;30378;50.186;8.644;2022-10-16T09:12:36;100466.78;;;16.35;100.00
44659;BME280;30378;50.186;8.644;2022-10-16T09:18:43;100456.25;;;16.19;100.00
44659;BME280;30378;50.186;8.644;2022-10-16T09:23:45;100472.44;;;15.91;100.00
44659;BME280;30378;50.186;8.644;2022-10-16T09:26:13;100481.59;;;15.83;100.00
44659;BME280;30378;50.186;8.644;2022-10-16T09:28:41;100490.59;;;15.80;100.00
44659;BME280;30378;50.186;8.644;2022-10-16T09:31:19;100505.91;;;15.86;100.00
44659;BME280;30378;50.186;8.644;2022-10-16T09:33:51;100495.47;;;15.74;100.00
44659;BME280;30378;50.186;8.644;2022-10-16T09:36:21;100515.66;;;15.92;100.00
44659;BME280;30378;50.186;8.644;2022-10-16T09:38:49;100512.75;;;15.80;100.00
44659;BME280;30378;50.186;8.644;2022-10-16T09:41:21;100508.34;;;15.79;100.00
44659;BME280;30378;50.186;8.644;2022-10-16T09:43:57;100506.34;;;15.71;100.00
44659;BME280;30378;50.186;8.644;2022-10-16T09:46:33;100507.34;;;15.66;100.00
44659;BME280;30378;50.186;8.644;2022-10-16T09:49:18;100500.34;;;15.69;100.00
44659;BME280;30378;50.186;8.644;2022-10-16T09:51:46;100510.59;;;15.85;100.00
44659;BME280;30378;50.186;8.644;2022-10-16T09:54:16;100516.44;;;16.01;100.00
44659;BME280;30378;50.186;8.644;2022-10-16T09:56:43;100512.38;;;16.08;100.00
44659;BME280;30378;50.186;8.644;2022-10-16T09:59:17;100510.09;;;16.10;100.00
44659;BME280;30378;50.186;8.644;2022-10-16T10:01:50;100507.50;;;16.04;100.00
44659;BME280;30378;50.186;8.644;2022-10-16T10:04:22;100519.41;;;15.96;100.00
44659;BME280;30378;50.186;8.644;2022-10-16T10:06:55;100525.28;;;15.95;100.00
44659;BME280;30378;50.186;8.644;2022-10-16T10:09:25;100523.66;;;15.94;100.00
44659;BME280;30378;50.186;8.644;2022-10-16T10:11:56;100516.78;;;15.91;100.00
44659;BME280;30378;50.186;8.644;2022-10-16T10:14:38;100515.47;;;16.06;100.00
44659;BME280;30378;50.186;8.644;2022-10-16T10:17:11;100529.97;;;16.29;100.00
44659;BME280;30378;50.186;8.644;2022-10-16T10:19:56;100508.66;;;17.49;100.00
44659;BME280;30378;50.186;8.644;2022-10-16T10:22:43;100477.84;;;17.75;100.00
44659;BME280;30378;50.186;8.644;2022-10-16T10:30:18;100400.81;;;19.48;100.00
44659;BME280;30378;50.186;8.644;2022-10-16T10:36:08;100365.97;;;19.70;100.00
44659;BME280;30378;50.186;8.644;2022-10-16T11:00:37;100355.56;;;21.17;100.00
44659;BME280;30378;50.186;8.644;2022-10-16T11:08:38;100347.66;;;21.42;100.00
44659;BME280;30378;50.186;8.644;2022-10-16T11:13:51;100364.25;;;21.51;100.00
44659;BME280;30378;50.186;8.644;2022-10-16T11:16:31;100352.34;;;20.28;100.00
44659;BME280;30378;50.186;8.644;2022-10-16T11:19:21;100356.56;;;20.22;100.00
44659;BME280;30378;50.186;8.644;2022-10-16T11:25:18;100349.31;;;20.53;100.00
44659;BME280;30378;50.186;8.644;2022-10-16T11:27:54;100353.47;;;19.64;100.00
44659;BME280;30378;50.186;8.644;2022-10-16T11:30:26;100358.97;;;18.79;100.00
44659;BME280;30378;50.186;8.644;2022-10-16T11:33:04;100359.31;;;19.02;100.00
44659;BME280;30378;50.186;8.644;2022-10-16T11:35:46;100361.25;;;19.01;100.00
44659;BME280;30378;50.186;8.644;2022-10-16T11:38:30;100357.84;;;19.65;100.00
44659;BME280;30378;50.186;8.644;2022-10-16T11:41:04;100355.94;;;19.81;100.00
44659;BME280;30378;50.186;8.644;2022-10-16T11:43:46;100348.78;;;20.47;100.00
44659;BME280;30378;50.186;8.644;2022-10-16T11:46:19;100353.81;;;20.73;100.00
44659;BME280;30378;50.186;8.644;2022-10-16T11:49:20;100349.09;;;19.78;100.00
44659;BME280;30378;50.186;8.644;2022-10-16T11:52:03;100359.66;;;19.29;100.00
44659;BME280;30378;50.186;8.644;2022-10-16T11:54:54;100368.28;;;18.83;100.00
44659;BME280;30378;50.186;8.644;2022-10-16T11:57:35;100371.81;;;19.08;100.00
44659;BME280;30378;50.186;8.644;2022-10-16T12:00:25;100355.75;;;19.74;100.00
44659;BME280;30378;50.186;8.644;2022-10-16T12:03:44;100357.94;;;19.24;100.00
44659;BME280;30378;50.186;8.644;2022-10-16T12:08:29;100346.59;;;20.21;100.00
44659;BME280;30378;50.186;8.644;2022-10-16T12:16:57;100360.69;;;20.60;100.00
44659;BME280;30378;50.186;8.644;2022-10-16T12:19:28;100365.06;;;19.66;100.00
44659;BME280;30378;50.186;8.644;2022-10-16T12:22:01;100364.50;;;19.60;100.00
44659;BME280;30378;50.186;8.644;2022-10-16T12:24:39;100365.06;;;19.66;100.00
44659;BME280;30378;50.186;8.644;2022-10-16T12:27:30;100363.09;;;19.38;100.00
44659;BME280;30378;50.186;8.644;2022-10-16T12:30:00;100359.56;;;19.53;100.00
44659;BME280;30378;50.186;8.644;2022-10-16T12:32:38;100363.31;;;19.73;100.00
44659;BME280;30378;50.186;8.644;2022-10-16T12:35:34;100372.00;;;19.15;100.00
44659;BME280;30378;50.186;8.644;2022-10-16T12:41:04;100362.31;;;20.45;100.00
44659;BME280;30378;50.186;8.644;2022-10-16T12:46:03;100371.88;;;19.96;100.00
44659;BME280;30378;50.186;8.644;2022-10-16T12:48:31;100371.63;;;19.57;100.00
44659;BME280;30378;50.186;8.644;2022-10-16T12:51:19;100372.47;;;19.74;100.00
44659;BME280;30378;50.186;8.644;2022-10-16T12:59:48;100386.06;;;20.71;100.00
44659;BME280;30378;50.186;8.644;2022-10-16T13:02:50;100386.81;;;20.20;100.00
44659;BME280;30378;50.186;8.644;2022-10-16T13:14:19;100386.44;;;20.06;100.00
44659;BME280;30378;50.186;8.644;2022-10-16T13:23:08;100392.31;;;20.16;100.00
44659;BME280;30378;50.186;8.644;2022-10-16T13:26:09;100392.66;;;20.31;100.00
44659;BME280;30378;50.186;8.644;2022-10-16T13:28:40;100390.13;;;20.41;100.00
44659;BME280;30378;50.186;8.644;2022-10-16T13:31:15;100384.28;;;20.31;100.00
44659;BME280;30378;50.186;8.644;2022-10-16T13:33:47;100379.59;;;20.35;100.00
44659;BME280;30378;50.186;8.644;2022-10-16T13:36:24;100372.59;;;20.25;100.00
44659;BME280;30378;50.186;8.644;2022-10-16T13:39:20;100376.97;;;20.74;100.00
44659;BME280;30378;50.186;8.644;2022-10-16T13:44:39;100376.63;;;20.75;100.00
44659;BME280;30378;50.186;8.644;2022-10-16T13:47:36;100391.28;;;19.77;100.00
44659;BME280;30378;50.186;8.644;2022-10-16T13:50:12;100386.53;;;19.93;100.00
44659;BME280;30378;50.186;8.644;2022-10-16T13:52:39;100379.31;;;19.76;100.00
44659;BME280;30378;50.186;8.644;2022-10-16T13:55:14;100373.03;;;19.79;100.00
44659;BME280;30378;50.186;8.644;2022-10-16T13:57:42;100379.69;;;19.62;100.00
44659;BME280;30378;50.186;8.644;2022-10-16T14:00:23;100370.31;;;19.55;100.00
44659;BME280;30378;50.186;8.644;2022-10-16T14:02:55;100368.91;;;19.45;100.00
44659;BME280;30378;50.186;8.644;2022-10-16T14:05:24;100372.03;;;19.44;100.00
44659;BME280;30378;50.186;8.644;2022-10-16T14:07:51;100368.16;;;19.48;100.00
44659;BME280;30378;50.186;8.644;2022-10-16T14:10:27;100368.03;;;19.57;100.00
44659;BME280;30378;50.186;8.644;2022-10-16T14:13:05;100370.28;;;19.67;100.00
44659;BME280;30378;50.186;8.644;2022-10-16T14:15:35;100364.59;;;19.64;100.00
44659;BME280;30378;50.186;8.644;2022-10-16T14:18:03;100365.84;;;19.50;100.00
44659;BME280;30378;50.186;8.644;2022-10-16T14:20:33;100365.72;;;19.47;100.00
44659;BME280;30378;50.186;8.644;2022-10-16T14:23:04;100368.91;;;19.45;100.00
44659;BME280;30378;50.186;8.644;2022-10-16T14:25:32;100368.50;;;19.47;100.00
44659;BME280;30378;50.186;8.644;2022-10-16T14:28:03;100370.44;;;19.30;100.00
44659;BME280;30378;50.186;8.644;2022-10-16T14:30:34;100382.84;;;19.33;100.00
44659;BME280;30378;50.186;8.644;2022-10-16T14:33:18;100387.22;;;19.46;100.00
44659;BME280;30378;50.186;8.644;2022-10-16T14:36:19;100381.66;;;19.46;100.00
44659;BME280;30378;50.186;8.644;2022-10-16T14:39:04;100377.75;;;19.63;100.00
44659;BME280;30378;50.186;8.644;2022-10-16T14:41:41;100390.75;;;19.71;100.00
44659;BME280;30378;50.186;8.644;2022-10-16T14:44:10;100409.06;;;19.72;100.00
44659;BME280;30378;50.186;8.644;2022-10-16T14:46:42;100399.41;;;19.70;100.00
44659;BME280;30378;50.186;8.644;2022-10-16T14:51:38;100386.78;;;19.88;100.00
44659;BME280;30378;50.186;8.644;2022-10-16T14:54:09;100388.41;;;19.89;100.00
44659;BME280;30378;50.186;8.644;2022-10-16T14:59:28;100380.94;;;19.77;100.00
44659;BME280;30378;50.186;8.644;2022-10-16T15:01:57;100392.59;;;19.67;100.00
44659;BME280;30378;50.186;8.644;2022-10-16T15:04:24;100382.94;;;19.65;100.00
44659;BME280;30378;50.186;8.644;2022-10-16T15:06:51;100391.31;;;19.65;100.00